Time;durP1;ratioP1;P1;durP2;ratioP2;P2;SDS_P1;SDS_P2;PMS_P1;PMS_P2;Temp;Humidity;BMP_temperature;BMP_pressure;BME280_temperature;BME280_humidity;BME280_pressure;Samples;Min_cycle;Max_cycle;Signal;HPM_P1;HPM_P2
2022/07/22 00:02:16;;;;;;;12.53;4.80;;;16.30;99.90;;;;;;5093974;28;20176;-76
2022/07/22 00:04:42;;;;;;;14.30;4.80;;;16.30;99.90;;;;;;5093640;28;20179;-76
2022/07/22 00:07:07;;;;;;;10.90;4.80;;;16.30;99.90;;;;;;5093036;28;20696;-76
2022/07/22 00:09:33;;;;;;;13.93;5.07;;;16.30;99.90;;;;;;5093884;28;20187;-75
2022/07/22 00:12:00;;;;;;;14.30;5.10;;;16.30;99.90;;;;;;5093508;28;20291;-76
2022/07/22 00:14:26;;;;;;;15.90;5.33;;;16.30;99.90;;;;;;5093447;28;20199;-76
2022/07/22 00:16:51;;;;;;;16.57;5.73;;;16.30;99.90;;;;;;5093573;28;20218;-76
2022/07/22 00:19:17;;;;;;;11.13;4.80;;;16.30;99.90;;;;;;5092970;28;20666;-76
2022/07/22 00:21:43;;;;;;;15.10;5.43;;;16.20;99.90;;;;;;5075406;28;20175;-76
2022/07/22 00:24:08;;;;;;;16.67;5.40;;;16.10;99.90;;;;;;5093214;28;20190;-76
2022/07/22 00:26:34;;;;;;;15.30;5.30;;;16.20;99.90;;;;;;5093329;28;20167;-75
2022/07/22 00:29:00;;;;;;;16.87;5.93;;;16.20;99.90;;;;;;5093314;28;20207;-76
2022/07/22 00:31:25;;;;;;;18.50;5.33;;;16.20;99.90;;;;;;5093364;28;20172;-76
2022/07/22 00:33:51;;;;;;;13.50;6.20;;;16.20;99.90;;;;;;5092811;28;20180;-75
2022/07/22 00:36:17;;;;;;;19.30;6.30;;;16.20;99.90;;;;;;5093057;28;20176;-75
2022/07/22 00:38:42;;;;;;;14.13;5.40;;;16.20;99.90;;;;;;5093246;28;20168;-75
2022/07/22 00:41:08;;;;;;;12.73;5.50;;;16.20;99.90;;;;;;5093194;28;20171;-76
2022/07/22 00:43:58;;;;;;;16.13;5.43;;;16.20;99.90;;;;;;5092991;28;20167;-76
2022/07/22 00:46:26;;;;;;;12.27;5.60;;;16.10;99.90;;;;;;5093204;28;20175;-75
2022/07/22 00:48:52;;;;;;;12.43;5.23;;;16.00;99.90;;;;;;5074798;28;20211;-75
2022/07/22 00:51:18;;;;;;;15.20;6.27;;;16.00;99.90;;;;;;5093198;28;20176;-75
2022/07/22 00:53:44;;;;;;;14.70;5.60;;;16.00;99.90;;;;;;5092852;28;20172;-76
2022/07/22 00:56:10;;;;;;;14.73;5.60;;;16.00;99.90;;;;;;5093196;28;20239;-76
2022/07/22 00:58:36;;;;;;;12.37;5.60;;;16.00;99.90;;;;;;5093070;28;20172;-75
2022/07/22 01:01:03;;;;;;;14.80;5.77;;;16.00;99.90;;;;;;5094765;28;20210;-75
2022/07/22 01:03:28;;;;;;;15.13;5.70;;;16.00;99.90;;;;;;5096491;28;20172;-76
2022/07/22 01:05:54;;;;;;;15.80;6.40;;;16.00;99.90;;;;;;5096458;28;20195;-76
2022/07/22 01:08:19;;;;;;;16.07;5.87;;;16.00;99.90;;;;;;5097071;28;20211;-76
2022/07/22 01:10:45;;;;;;;11.37;5.17;;;16.00;99.90;;;;;;5096964;28;20172;-76
2022/07/22 01:13:11;;;;;;;16.90;6.27;;;16.00;99.90;;;;;;5096797;28;20293;-76
2022/07/22 01:15:36;;;;;;;14.57;6.03;;;16.00;99.90;;;;;;5078736;28;20247;-76
2022/07/22 01:18:02;;;;;;;12.20;6.10;;;16.00;99.90;;;;;;5096356;28;20172;-76
2022/07/22 01:20:28;;;;;;;12.90;5.67;;;16.00;99.90;;;;;;5096487;28;20174;-75
2022/07/22 01:22:53;;;;;;;13.37;5.93;;;15.90;99.90;;;;;;5096584;28;20255;-76
2022/07/22 01:25:19;;;;;;;11.87;5.60;;;15.70;99.90;;;;;;5096515;28;20221;-76
2022/07/22 01:27:45;;;;;;;19.23;6.00;;;15.80;99.90;;;;;;5078390;28;20238;-76
2022/07/22 01:30:11;;;;;;;17.27;5.97;;;15.80;99.90;;;;;;5096462;28;20176;-75
2022/07/22 01:32:36;;;;;;;15.23;6.53;;;15.80;99.90;;;;;;5096075;28;20179;-76
2022/07/22 01:35:02;;;;;;;17.10;6.17;;;15.80;99.90;;;;;;5096262;28;20164;-76
2022/07/22 01:37:28;;;;;;;11.33;5.97;;;15.70;99.90;;;;;;5096293;28;20694;-75
2022/07/22 01:39:54;;;;;;;15.10;5.80;;;15.60;99.90;;;;;;5078096;28;20199;-76
2022/07/22 01:42:19;;;;;;;14.87;6.27;;;15.60;99.90;;;;;;5096419;28;20210;-75
2022/07/22 01:44:45;;;;;;;11.80;5.73;;;15.60;99.90;;;;;;5096523;28;20172;-75
2022/07/22 01:47:11;;;;;;;14.63;6.10;;;15.50;99.90;;;;;;5095892;28;20263;-75
2022/07/22 01:49:37;;;;;;;14.73;6.07;;;15.50;99.90;;;;;;5096016;28;20168;-76
2022/07/22 01:52:04;;;;;;;15.63;6.13;;;15.50;99.90;;;;;;5095998;28;20176;-75
2022/07/22 01:54:29;;;;;;;16.17;6.10;;;15.50;99.90;;;;;;5096029;28;20168;-75
2022/07/22 01:56:55;;;;;;;18.83;6.10;;;15.40;99.90;;;;;;5077873;28;20658;-75
2022/07/22 01:59:21;;;;;;;12.37;5.87;;;15.40;99.90;;;;;;5096081;28;20180;-75
2022/07/22 02:01:46;;;;;;;16.50;6.10;;;15.30;99.90;;;;;;5095502;28;20168;-75
2022/07/22 02:04:12;;;;;;;15.93;6.17;;;15.40;99.90;;;;;;5095658;28;20172;-75
2022/07/22 02:06:38;;;;;;;16.60;6.27;;;15.40;99.90;;;;;;5095630;28;20215;-75
2022/07/22 02:09:03;;;;;;;14.13;6.33;;;15.40;99.90;;;;;;5095785;28;20686;-76
2022/07/22 02:11:29;;;;;;;14.07;5.87;;;15.50;99.90;;;;;;5095807;28;20176;-75
2022/07/22 02:13:55;;;;;;;20.37;6.53;;;15.50;99.90;;;;;;5095090;28;20187;-75
2022/07/22 02:16:21;;;;;;;15.20;6.70;;;15.50;99.90;;;;;;5095299;28;20172;-75
2022/07/22 02:18:47;;;;;;;17.27;6.33;;;15.50;99.90;;;;;;5077440;28;20175;-75
2022/07/22 02:21:12;;;;;;;16.80;6.20;;;15.50;99.90;;;;;;5095606;28;20164;-75
2022/07/22 02:23:38;;;;;;;12.07;5.50;;;15.50;99.90;;;;;;5095441;28;20179;-75
2022/07/22 02:26:04;;;;;;;15.63;6.57;;;15.50;99.90;;;;;;5095562;28;20225;-75
2022/07/22 02:28:29;;;;;;;14.07;5.90;;;15.40;99.90;;;;;;5095532;28;20289;-75
2022/07/22 02:30:55;;;;;;;15.70;6.40;;;15.40;99.90;;;;;;5094848;28;20172;-75
2022/07/22 02:33:20;;;;;;;18.67;7.00;;;15.40;99.90;;;;;;5077156;28;20175;-75
2022/07/22 02:35:46;;;;;;;16.60;6.80;;;15.40;99.90;;;;;;5077200;28;20268;-75
2022/07/22 02:38:12;;;;;;;22.47;7.47;;;15.40;99.90;;;;;;5077083;28;20222;-75
2022/07/22 02:40:38;;;;;;;15.40;7.10;;;15.50;99.90;;;;;;5095177;28;20571;-75
2022/07/22 02:43:06;;;;;;;15.40;7.17;;;15.40;99.90;;;;;;5094902;28;20172;-75
2022/07/22 02:45:32;;;;;;;16.70;7.23;;;15.40;99.90;;;;;;5094927;28;20180;-75
2022/07/22 02:47:58;;;;;;;14.40;6.63;;;15.40;99.90;;;;;;5094852;28;20207;-75
2022/07/22 02:50:24;;;;;;;14.27;7.20;;;15.50;99.90;;;;;;5076801;28;20608;-75
2022/07/22 02:52:50;;;;;;;13.33;7.07;;;15.50;99.90;;;;;;5094837;28;20175;-75
2022/07/22 02:55:16;;;;;;;13.17;7.07;;;15.60;99.90;;;;;;5094877;28;20199;-75
2022/07/22 02:57:42;;;;;;;12.67;7.13;;;15.50;99.90;;;;;;5076740;28;20267;-75
2022/07/22 03:00:10;;;;;;;15.47;7.57;;;15.50;99.90;;;;;;5094261;28;20255;-75
2022/07/22 03:02:35;;;;;;;13.90;7.40;;;15.50;99.90;;;;;;5094584;28;20190;-74
2022/07/22 03:05:02;;;;;;;23.63;7.83;;;15.50;99.90;;;;;;5094623;28;20176;-74
2022/07/22 03:07:27;;;;;;;14.27;7.10;;;15.50;99.90;;;;;;5094427;28;20268;-76
2022/07/22 03:09:53;;;;;;;14.70;7.50;;;15.40;99.90;;;;;;5094618;28;20630;-76
2022/07/22 03:12:19;;;;;;;17.47;7.50;;;15.40;99.90;;;;;;5094408;28;20171;-76
2022/07/22 03:14:44;;;;;;;12.20;7.17;;;15.30;99.90;;;;;;5094075;28;20164;-75
2022/07/22 03:17:10;;;;;;;20.67;8.17;;;15.30;99.90;;;;;;5094310;28;20250;-75
2022/07/22 03:19:36;;;;;;;15.97;7.50;;;15.30;99.90;;;;;;5094302;28;20168;-75
2022/07/22 03:22:01;;;;;;;14.07;7.27;;;15.20;99.90;;;;;;5094165;28;20541;-75
2022/07/22 03:24:27;;;;;;;16.97;6.93;;;15.20;99.90;;;;;;5093097;28;20169;-75
2022/07/22 03:26:53;;;;;;;18.17;7.03;;;15.20;99.90;;;;;;5094147;28;20565;-75
2022/07/22 03:29:18;;;;;;;19.07;7.10;;;15.20;99.90;;;;;;5093469;28;20604;-75
2022/07/22 03:31:44;;;;;;;16.83;7.00;;;15.10;99.90;;;;;;5094099;28;20652;-75
2022/07/22 03:34:09;;;;;;;16.73;6.33;;;15.10;99.90;;;;;;5093837;28;20168;-74
2022/07/22 03:36:35;;;;;;;16.50;6.60;;;15.10;99.90;;;;;;5093849;28;20259;-74
2022/07/22 03:39:01;;;;;;;13.97;5.60;;;15.10;99.90;;;;;;5093718;28;20214;-75
2022/07/22 03:41:27;;;;;;;16.57;6.40;;;15.10;99.90;;;;;;5093684;28;20508;-74
2022/07/22 03:43:52;;;;;;;18.33;5.73;;;15.10;99.90;;;;;;5093563;28;20631;-74
2022/07/22 03:46:18;;;;;;;15.23;5.67;;;15.10;99.90;;;;;;5093523;28;20179;-76
2022/07/22 03:48:44;;;;;;;13.70;6.27;;;15.10;99.90;;;;;;5093773;28;20322;-75
2022/07/22 03:51:09;;;;;;;11.23;5.83;;;15.10;99.90;;;;;;5075186;28;20191;-75
2022/07/22 03:53:35;;;;;;;14.10;5.87;;;15.10;99.90;;;;;;5093535;28;20578;-75
2022/07/22 03:56:01;;;;;;;11.77;5.87;;;15.00;99.90;;;;;;5093293;28;20178;-75
2022/07/22 03:58:27;;;;;;;9.37;5.43;;;15.00;99.90;;;;;;5093148;28;20171;-75
2022/07/22 04:00:54;;;;;;;9.30;5.00;;;15.00;99.90;;;;;;5093262;28;20618;-75
2022/07/22 04:03:19;;;;;;;17.33;5.53;;;15.00;99.90;;;;;;5093426;28;20175;-74
2022/07/22 04:05:45;;;;;;;14.73;5.07;;;14.90;99.90;;;;;;5092928;28;20542;-74
2022/07/22 04:08:11;;;;;;;12.23;5.37;;;14.90;99.90;;;;;;5092966;28;20224;-74
2022/07/22 04:10:37;;;;;;;9.17;5.33;;;14.90;99.90;;;;;;5093039;28;20172;-74
2022/07/22 04:13:03;;;;;;;13.97;5.30;;;14.90;99.90;;;;;;5092839;28;20198;-74
2022/07/22 04:15:29;;;;;;;12.60;5.57;;;15.00;99.90;;;;;;5092857;28;20164;-74
2022/07/22 04:17:55;;;;;;;11.53;5.50;;;15.00;99.90;;;;;;5093039;28;20178;-75
2022/07/22 04:20:21;;;;;;;16.27;6.50;;;15.10;99.90;;;;;;5093470;28;20534;-75
2022/07/22 04:22:46;;;;;;;10.90;5.57;;;15.20;99.90;;;;;;5092924;28;20251;-74
2022/07/22 04:25:12;;;;;;;13.97;5.33;;;15.30;99.90;;;;;;5093139;28;20171;-74
2022/07/22 04:27:38;;;;;;;13.53;5.67;;;15.40;99.90;;;;;;5092765;28;20207;-74
2022/07/22 04:30:04;;;;;;;14.53;5.63;;;15.50;99.90;;;;;;5092952;28;20159;-74
2022/07/22 04:32:30;;;;;;;13.77;5.70;;;15.70;99.90;;;;;;5074583;28;20178;-74
2022/07/22 04:34:55;;;;;;;10.23;5.20;;;15.90;99.90;;;;;;5093113;28;20255;-75
2022/07/22 04:37:21;;;;;;;15.10;5.87;;;16.30;99.90;;;;;;5096934;28;20203;-74
2022/07/22 04:39:46;;;;;;;13.23;5.17;;;16.80;99.90;;;;;;5097958;28;20729;-75
2022/07/22 04:42:12;;;;;;;11.17;5.03;;;17.30;99.90;;;;;;5096729;28;20293;-75
2022/07/22 04:44:38;;;;;;;11.50;5.40;;;17.70;97.60;;;;;;5096908;28;20193;-74
2022/07/22 04:47:03;;;;;;;9.83;4.80;;;18.10;76.50;;;;;;5096665;28;20507;-74
2022/07/22 04:49:29;;;;;;;12.90;4.73;;;18.60;58.50;;;;;;5078678;28;20209;-75
2022/07/22 04:51:55;;;;;;;7.77;4.63;;;19.10;27.90;;;;;;5096682;28;20168;-75
2022/07/22 04:54:20;;;;;;;9.15;4.60;;;19.30;17.10;;;;;;5078763;28;20229;-75
2022/07/22 04:56:46;;;;;;;11.73;4.55;;;19.80;1.50;;;;;;5096490;28;20171;-75
2022/07/22 04:59:11;;;;;;;10.82;4.50;;;20.50;1.00;;;;;;5096452;28;20531;-74
2022/07/22 05:01:37;;;;;;;11.00;4.50;;;20.70;1.00;;;;;;5096725;28;20175;-75
2022/07/22 05:04:03;;;;;;;10.27;4.47;;;21.20;1.00;;;;;;5096923;28;20631;-76
2022/07/22 05:06:29;;;;;;;9.52;4.40;;;21.80;1.00;;;;;;5096960;28;20710;-76
2022/07/22 05:08:54;;;;;;;11.60;4.80;;;22.60;1.00;;;;;;5096308;28;20243;-75
2022/07/22 05:11:20;;;;;;;10.65;4.10;;;23.00;1.00;;;;;;5095792;28;20274;-76
2022/07/22 05:13:46;;;;;;;11.13;4.72;;;23.10;99.90;;;;;;5096353;28;20179;-77
2022/07/22 05:16:11;;;;;;;8.60;4.55;;;23.30;1.00;;;;;;5096273;28;20855;-76
2022/07/22 05:18:37;;;;;;;10.77;4.47;;;23.50;1.00;;;;;;5096320;28;20171;-76
2022/07/22 05:21:04;;;;;;;7.45;4.78;;;23.60;99.90;;;;;;5078554;28;20508;-75
2022/07/22 05:23:30;;;;;;;10.80;5.18;;;23.00;1.00;;;;;;5095698;28;20246;-75
2022/07/22 05:25:56;;;;;;;10.60;4.72;;;22.60;99.90;;;;;;5096290;28;20246;-76
2022/07/22 05:28:21;;;;;;;9.40;5.38;;;22.30;1.00;;;;;;5077857;28;20718;-75
2022/07/22 05:30:47;;;;;;;12.88;4.95;;;22.30;1.00;;;;;;5095840;28;20171;-75
2022/07/22 05:33:12;;;;;;;8.82;4.93;;;22.70;1.00;;;;;;5096311;28;20305;-76
2022/07/22 05:35:38;;;;;;;10.20;4.50;;;23.90;1.00;;;;;;5095559;28;20179;-76
2022/07/22 05:38:05;;;;;;;10.63;5.20;;;24.90;1.00;;;;;;5096415;28;20218;-76
2022/07/22 05:40:31;;;;;;;10.27;4.93;;;24.10;99.90;;;;;;5095378;28;20275;-75
2022/07/22 05:42:57;;;;;;;11.32;5.22;;;22.70;99.90;;;;;;5095542;28;20168;-75
2022/07/22 05:45:23;;;;;;;13.13;5.30;;;22.30;1.00;;;;;;5095702;28;20179;-76
2022/07/22 05:47:48;;;;;;;10.95;5.47;;;22.10;1.00;;;;;;5094397;28;20688;-76
2022/07/22 05:50:14;;;;;;;11.52;5.80;;;22.30;1.00;;;;;;5095253;28;20168;-76
2022/07/22 05:52:40;;;;;;;11.48;5.70;;;23.20;99.90;;;;;;5095573;28;20577;-76
2022/07/22 05:55:06;;;;;;;10.65;5.50;;;23.40;7.30;;;;;;5095169;28;20196;-77
2022/07/22 05:57:32;;;;;;;9.82;5.38;;;23.60;99.90;;;;;;5095506;28;20269;-77
2022/07/22 05:59:58;;;;;;;13.65;6.20;;;23.50;1.00;;;;;;5095035;28;20172;-77
2022/07/22 06:02:24;;;;;;;11.40;6.70;;;24.00;99.90;;;;;;5095324;28;20171;-77
2022/07/22 06:04:50;;;;;;;13.68;7.78;;;23.70;1.00;;;;;;5095584;28;20171;-77
2022/07/22 06:07:15;;;;;;;15.32;8.70;;;23.70;1.00;;;;;;5077162;28;20226;-77
2022/07/22 06:09:41;;;;;;;11.77;8.38;;;23.60;1.00;;;;;;5094534;28;20187;-77
2022/07/22 06:12:07;;;;;;;15.68;8.30;;;24.00;99.90;;;;;;5095174;28;20172;-77
2022/07/22 06:14:36;;;;;;;13.38;7.43;;;24.50;1.00;;;;;;5095372;28;20263;-77
2022/07/22 06:17:01;;;;;;;14.25;7.63;;;25.00;62.90;;;;;;5095158;28;20172;-77
2022/07/22 06:19:29;;;;;;;17.48;7.78;;;24.10;1.00;;;;;;5095429;28;20615;-77
2022/07/22 06:21:54;;;;;;;10.90;7.00;;;23.80;1.00;;;;;;5076492;28;20225;-77
2022/07/22 06:24:20;;;;;;;12.43;6.75;;;23.60;99.90;;;;;;5076540;28;20199;-77
2022/07/22 06:26:46;;;;;;;10.23;6.28;;;23.50;1.00;;;;;;5077029;28;20168;-77
2022/07/22 06:29:12;;;;;;;13.70;6.38;;;23.60;1.00;;;;;;5094946;28;20207;-77
2022/07/22 06:31:37;;;;;;;11.75;6.28;;;23.00;99.90;;;;;;5076604;28;20177;-76
2022/07/22 06:34:05;;;;;;;12.70;6.75;;;22.90;99.90;;;;;;5094926;28;20168;-77
2022/07/22 06:36:32;;;;;;;10.02;5.78;;;23.40;99.90;;;;;;5094297;28;20176;-76
2022/07/22 06:38:57;;;;;;;7.43;5.40;;;23.50;1.00;;;;;;5094937;28;20188;-76
2022/07/22 06:41:23;;;;;;;9.38;5.43;;;24.30;1.00;;;;;;5076639;28;20186;-76
2022/07/22 06:43:49;;;;;;;8.93;5.82;;;25.50;1.00;;;;;;5094651;28;20171;-76
2022/07/22 06:46:14;;;;;;;8.85;5.20;;;25.10;1.00;;;;;;5076369;28;20175;-76
2022/07/22 06:48:40;;;;;;;8.13;5.20;;;25.10;1.00;;;;;;5094686;28;20676;-76
2022/07/22 06:51:06;;;;;;;10.00;5.85;;;24.70;65.70;;;;;;5094045;28;20167;-76
2022/07/22 06:53:32;;;;;;;7.30;5.38;;;25.10;99.90;;;;;;5094016;28;20185;-76
2022/07/22 06:55:58;;;;;;;6.82;5.15;;;24.20;1.00;;;;;;5075983;28;20191;-77
2022/07/22 06:58:24;;;;;;;8.55;5.10;;;24.40;99.90;;;;;;5094379;28;20622;-77
2022/07/22 07:00:49;;;;;;;6.20;4.43;;;24.20;37.00;;;;;;5076156;28;20681;-77
2022/07/22 07:03:15;;;;;;;6.10;4.18;;;22.90;99.90;;;;;;5093595;28;20176;-78
2022/07/22 07:05:40;;;;;;;8.10;4.70;;;22.10;99.90;;;;;;5094370;28;20175;-77
2022/07/22 07:08:06;;;;;;;9.68;5.13;;;21.60;99.90;;;;;;5071622;28;20775;-75
2022/07/22 07:10:32;;;;;;;8.82;4.95;;;21.20;1.00;;;;;;5073938;28;20196;-76
2022/07/22 07:12:58;;;;;;;8.38;4.07;;;21.60;99.90;;;;;;5073666;28;20165;-77
2022/07/22 07:15:27;;;;;;;6.13;4.85;;;22.00;1.00;;;;;;5073446;28;20183;-76
2022/07/22 07:17:56;;;;;;;8.05;4.43;;;21.90;41.90;;;;;;5064740;28;20951;-75
2022/07/22 07:20:22;;;;;;;6.05;4.20;;;21.10;99.90;;;;;;5071024;28;20187;-75
2022/07/22 07:22:47;;;;;;;6.78;4.30;;;20.90;74.40;;;;;;5072701;28;20203;-74
2022/07/22 07:25:14;;;;;;;6.05;4.70;;;20.40;1.00;;;;;;5073056;28;20584;-76
2022/07/22 07:27:39;;;;;;;6.47;4.55;;;20.60;1.00;;;;;;5072625;28;20211;-76
2022/07/22 07:30:06;;;;;;;7.30;4.25;;;21.00;99.90;;;;;;5072917;28;20176;-74
2022/07/22 07:32:32;;;;;;;7.53;4.50;;;20.70;99.90;;;;;;5072581;28;20177;-74
2022/07/22 07:34:58;;;;;;;6.80;4.10;;;20.90;99.90;;;;;;5071581;28;20235;-75
2022/07/22 07:37:23;;;;;;;6.90;4.65;;;21.80;1.00;;;;;;5072422;28;20637;-75
2022/07/22 07:39:49;;;;;;;7.22;3.60;;;22.30;1.00;;;;;;5071933;28;20189;-75
2022/07/22 07:42:14;;;;;;;5.50;3.95;;;22.80;99.90;;;;;;5072606;28;20181;-76
2022/07/22 07:44:41;;;;;;;6.53;4.25;;;22.80;10.60;;;;;;5072574;28;20175;-76
2022/07/22 07:47:06;;;;;;;5.10;4.22;;;22.90;99.90;;;;;;5072153;28;20217;-76
2022/07/22 07:49:32;;;;;;;4.15;3.78;;;22.60;1.00;;;;;;5072281;28;20295;-76
2022/07/22 07:51:58;;;;;;;6.60;4.07;;;21.50;99.90;;;;;;5071677;28;20172;-75
2022/07/22 07:54:23;;;;;;;6.72;4.35;;;21.10;1.00;;;;;;5070649;28;20572;-75
2022/07/22 07:56:49;;;;;;;6.13;4.13;;;21.60;1.00;;;;;;5070988;28;20176;-75
2022/07/22 07:59:16;;;;;;;4.80;3.90;;;21.60;11.20;;;;;;5072095;28;20210;-74
2022/07/22 08:01:42;;;;;;;6.50;4.15;;;21.40;1.00;;;;;;5071779;28;20533;-75
2022/07/22 08:04:08;;;;;;;5.15;4.35;;;21.10;1.00;;;;;;5071694;28;20168;-75
2022/07/22 08:06:34;;;;;;;9.75;4.28;;;20.90;40.70;;;;;;5079533;28;20218;-75
2022/07/22 08:08:59;;;;;;;5.32;4.80;;;20.90;99.90;;;;;;5112389;28;20492;-75
2022/07/22 08:11:25;;;;;;;5.57;4.38;;;20.80;99.90;;;;;;5093337;28;20269;-74
2022/07/22 08:13:51;;;;;;;6.65;4.40;;;20.90;15.80;;;;;;5112565;28;20744;-75
2022/07/22 08:16:16;;;;;;;5.43;4.68;;;21.10;1.00;;;;;;5112933;28;20170;-75
2022/07/22 08:18:42;;;;;;;5.00;3.95;;;21.40;1.00;;;;;;5093623;28;20186;-75
2022/07/22 08:21:08;;;;;;;7.18;4.20;;;21.10;99.90;;;;;;5105954;28;20176;-75
2022/07/22 08:23:34;;;;;;;8.73;4.80;;;21.20;1.00;;;;;;5102045;28;20171;-73
2022/07/22 08:26:00;;;;;;;8.02;4.57;;;21.40;56.30;;;;;;5112659;28;20521;-77
2022/07/22 08:28:26;;;;;;;6.35;4.68;;;22.10;1.00;;;;;;5111568;28;20206;-76
2022/07/22 08:30:52;;;;;;;7.30;4.15;;;22.00;1.00;;;;;;5096044;28;20175;-76
2022/07/22 08:33:18;;;;;;;4.20;3.85;;;22.40;1.00;;;;;;5111890;28;20235;-76
2022/07/22 08:35:44;;;;;;;5.32;4.03;;;22.60;1.00;;;;;;5112712;28;20629;-75
2022/07/22 08:38:10;;;;;;;4.72;3.80;;;22.70;1.00;;;;;;5112794;28;20163;-76
2022/07/22 08:40:36;;;;;;;9.27;5.25;;;21.70;99.90;;;;;;5093614;28;20194;-75
2022/07/22 08:43:02;;;;;;;5.70;4.30;;;21.50;99.90;;;;;;5112317;28;20233;-77
2022/07/22 08:45:30;;;;;;;4.88;4.43;;;22.20;99.90;;;;;;5112065;28;20202;-77
2022/07/22 08:47:55;;;;;;;6.68;4.32;;;22.80;1.00;;;;;;5112117;28;20280;-77
2022/07/22 08:50:21;;;;;;;4.80;4.25;;;23.40;1.00;;;;;;5112358;28;20638;-77
2022/07/22 08:52:46;;;;;;;6.72;4.30;;;23.90;99.90;;;;;;5112481;28;20178;-77
2022/07/22 08:55:12;;;;;;;5.88;4.40;;;23.90;1.00;;;;;;5112100;28;20229;-77
2022/07/22 08:57:43;;;;;;;5.40;4.38;;;22.70;99.90;;;;;;5112315;28;20630;-77
2022/07/22 09:00:10;;;;;;;5.38;4.47;;;23.00;1.00;;;;;;5112303;28;20282;-77
2022/07/22 09:02:39;;;;;;;6.55;4.78;;;24.40;1.00;;;;;;5111522;28;20178;-77
2022/07/22 09:05:07;;;;;;;8.13;4.50;;;24.90;1.00;;;;;;5111948;28;20160;-75
2022/07/22 09:07:38;;;;;;;5.45;4.32;;;24.70;99.90;;;;;;5093803;28;20265;-75
2022/07/22 09:10:12;;;;;;;6.25;4.40;;;25.50;99.90;;;;;;5093107;28;20510;-77
2022/07/22 09:12:51;;;;;;;6.13;3.97;;;25.50;1.00;;;;;;5110754;28;20164;-76
2022/07/22 09:15:32;;;;;;;4.97;3.58;;;25.40;1.00;;;;;;5111562;28;20167;-76
2022/07/22 09:17:59;;;;;;;5.18;4.20;;;25.30;99.90;;;;;;5111416;28;20174;-76
2022/07/22 09:20:26;;;;;;;4.95;3.58;;;26.20;1.00;;;;;;5112251;28;20202;-77
2022/07/22 09:22:52;;;;;;;6.50;3.90;;;26.60;1.00;;;;;;5115928;28;20219;-76
2022/07/22 09:25:26;;;;;;;7.30;3.97;;;27.40;1.00;;;;;;5115221;28;20224;-75
2022/07/22 09:27:53;;;;;;;5.72;3.50;;;28.80;99.90;;;;;;5116765;28;20352;-76
2022/07/22 09:30:25;;;;;;;5.47;3.45;;;28.30;99.90;;;;;;5116148;28;20190;-77
2022/07/22 09:32:54;;;;;;;5.10;3.33;;;27.20;99.90;;;;;;5116124;28;20645;-77
2022/07/22 09:35:21;;;;;;;4.72;3.50;;;26.50;99.90;;;;;;5115986;28;20254;-76
2022/07/22 09:37:51;;;;;;;6.30;3.55;;;27.50;99.90;;;;;;5098157;28;20179;-75
2022/07/22 09:40:19;;;;;;;3.75;3.45;;;28.60;99.90;;;;;;5116188;28;20650;-75
2022/07/22 09:42:53;;;;;;;5.25;3.40;;;28.40;99.90;;;;;;5116263;28;20167;-76
2022/07/22 09:45:21;;;;;;;3.40;3.10;;;27.70;99.90;;;;;;5097318;28;20199;-76
2022/07/22 09:47:48;;;;;;;3.95;3.10;;;27.60;99.90;;;;;;5111660;28;20203;-76
2022/07/22 09:50:20;;;;;;;5.78;3.38;;;28.10;99.90;;;;;;5093351;28;20178;-78
2022/07/22 09:52:47;;;;;;;4.15;3.20;;;28.40;99.90;;;;;;5113656;28;20179;-78
2022/07/22 09:55:17;;;;;;;5.28;3.35;;;29.20;99.90;;;;;;5111439;28;20198;-78
2022/07/22 09:57:44;;;;;;;5.20;3.28;;;29.00;99.90;;;;;;5115349;28;20205;-78
2022/07/22 10:00:12;;;;;;;6.30;3.75;;;28.70;99.90;;;;;;5114356;28;20174;-78
2022/07/22 10:02:58;;;;;;;6.78;3.90;;;27.50;99.90;;;;;;5114966;28;20516;-77
2022/07/22 10:05:27;;;;;;;4.63;3.65;;;27.00;99.90;;;;;;5114354;28;20175;-77
2022/07/22 10:07:53;;;;;;;9.80;3.92;;;26.20;1.00;;;;;;5114973;28;20749;-78
2022/07/22 10:10:27;;;;;;;5.40;3.80;;;25.70;1.00;;;;;;5099813;28;20215;-78
2022/07/22 10:12:55;;;;;;;5.25;4.30;;;25.10;1.00;;;;;;5113636;28;20395;-78
2022/07/22 10:15:22;;;;;;;4.88;3.30;;;25.00;1.00;;;;;;5114722;28;20633;-77
2022/07/22 10:17:50;;;;;;;4.25;3.80;;;24.40;99.90;;;;;;5096746;28;20660;-77
2022/07/22 10:20:18;;;;;;;4.35;3.92;;;24.10;1.00;;;;;;5115504;28;20194;-77
2022/07/22 10:22:49;;;;;;;5.47;3.80;;;24.00;1.00;;;;;;5114507;28;20171;-77
2022/07/22 10:25:16;;;;;;;5.47;3.97;;;23.90;99.90;;;;;;5114973;28;20166;-76
2022/07/22 10:28:07;;;;;;;3.80;3.40;;;24.30;1.00;;;;;;5114906;28;20675;-75
2022/07/22 10:30:34;;;;;;;4.38;3.50;;;24.40;99.90;;;;;;5114434;28;20232;-76
2022/07/22 10:33:13;;;;;;;5.97;4.15;;;25.00;1.00;;;;;;5078908;28;20187;-75
2022/07/22 10:36:00;;;;;;;5.70;3.90;;;25.40;1.00;;;;;;5079254;28;20197;-76
2022/07/22 10:38:27;;;;;;;4.35;3.70;;;25.50;1.00;;;;;;5114554;28;20656;-76
2022/07/22 10:40:59;;;;;;;4.75;3.88;;;25.90;1.00;;;;;;5095979;28;20200;-76
2022/07/22 10:43:26;;;;;;;5.95;3.63;;;26.00;1.00;;;;;;5114476;28;20263;-76
2022/07/22 10:45:56;;;;;;;4.97;3.33;;;24.50;1.00;;;;;;5114133;28;20316;-76
2022/07/22 10:48:21;;;;;;;6.25;3.80;;;24.50;99.90;;;;;;5114242;28;20203;-77
2022/07/22 10:51:11;;;;;;;5.88;3.30;;;25.40;1.00;;;;;;5114095;28;20178;-77
2022/07/22 10:53:51;;;;;;;5.10;3.58;;;26.40;1.00;;;;;;5113475;28;20168;-76
2022/07/22 10:56:23;;;;;;;6.90;4.25;;;27.40;99.90;;;;;;5095661;28;20178;-75
2022/07/22 10:58:51;;;;;;;6.25;4.05;;;28.20;99.90;;;;;;5113755;28;20694;-76
2022/07/22 11:01:19;;;;;;;6.40;3.50;;;28.70;99.90;;;;;;5113397;28;20163;-77
2022/07/22 11:03:47;;;;;;;7.03;3.78;;;28.70;99.90;;;;;;5114458;28;20185;-77
2022/07/22 11:06:25;;;;;;;5.18;3.67;;;28.90;99.90;;;;;;5114210;28;20194;-76
2022/07/22 11:09:02;;;;;;;5.95;3.83;;;29.50;99.90;;;;;;5113075;28;20319;-77
2022/07/22 11:11:34;;;;;;;4.20;3.80;;;27.90;99.90;;;;;;5113310;28;20175;-78
2022/07/22 11:14:00;;;;;;;4.70;4.13;;;27.60;99.90;;;;;;5113574;28;20171;-78
2022/07/22 11:16:28;;;;;;;4.82;3.78;;;26.40;99.90;;;;;;5113636;28;20164;-78
2022/07/22 11:19:00;;;;;;;4.50;4.10;;;25.90;1.00;;;;;;5113500;28;20172;-77
2022/07/22 11:21:28;;;;;;;5.00;4.50;;;26.20;1.00;;;;;;5114070;28;20171;-78
2022/07/22 11:23:55;;;;;;;8.07;5.13;;;25.10;1.00;;;;;;5113726;28;20171;-78
2022/07/22 11:26:39;;;;;;;6.50;4.78;;;24.70;99.90;;;;;;5113236;28;20194;-79
2022/07/22 11:29:04;;;;;;;7.13;5.47;;;24.50;1.00;;;;;;5097358;28;20248;-77
2022/07/22 11:31:30;;;;;;;7.57;6.22;;;24.30;1.00;;;;;;5095225;28;20560;-78
2022/07/22 11:34:07;;;;;;;6.03;5.30;;;23.70;99.90;;;;;;5113104;28;20172;-77
2022/07/22 11:36:34;;;;;;;6.38;4.88;;;23.70;1.00;;;;;;5113396;28;20269;-78
2022/07/22 11:39:00;;;;;;;5.57;4.88;;;24.10;1.00;;;;;;5078055;28;20680;-77
2022/07/22 11:41:29;;;;;;;6.18;5.22;;;23.90;99.90;;;;;;5112881;28;20198;-77
2022/07/22 11:43:55;;;;;;;7.55;5.55;;;23.90;99.90;;;;;;5094965;28;20536;-77
2022/07/22 11:46:20;;;;;;;7.00;5.18;;;23.80;99.90;;;;;;5093610;28;20179;-77
2022/07/22 11:48:46;;;;;;;9.73;5.00;;;24.00;88.50;;;;;;5113023;28;20206;-77
2022/07/22 11:51:14;;;;;;;6.50;4.53;;;24.60;99.90;;;;;;5113452;28;20171;-77
2022/07/22 11:53:40;;;;;;;5.28;4.78;;;25.10;99.90;;;;;;5112732;28;20191;-78
2022/07/22 11:56:07;;;;;;;5.38;4.55;;;24.70;1.00;;;;;;5094205;28;20179;-78
2022/07/22 11:58:45;;;;;;;5.13;4.63;;;24.20;1.00;;;;;;5113192;28;20179;-77
2022/07/22 12:01:16;;;;;;;7.53;4.97;;;24.20;99.90;;;;;;5097353;28;20303;-78
2022/07/22 12:03:45;;;;;;;5.03;4.60;;;23.90;1.00;;;;;;5112558;28;20187;-76
2022/07/22 12:06:13;;;;;;;5.68;4.88;;;24.40;99.90;;;;;;5112648;28;20159;-76
2022/07/22 12:09:03;;;;;;;5.93;5.30;;;25.10;1.00;;;;;;5113140;28;20340;-76
2022/07/22 12:11:29;;;;;;;5.50;5.00;;;25.20;99.90;;;;;;5112264;28;20195;-77
2022/07/22 12:13:55;;;;;;;6.15;4.88;;;25.30;99.90;;;;;;5111782;28;20171;-77
2022/07/22 12:16:22;;;;;;;5.22;4.72;;;24.90;99.90;;;;;;5109685;28;20167;-79
2022/07/22 12:19:06;;;;;;;5.45;4.95;;;25.20;99.90;;;;;;5112374;28;20167;-77
2022/07/22 12:21:34;;;;;;;5.20;4.72;;;25.20;99.90;;;;;;5112719;28;20181;-76
2022/07/22 12:24:05;;;;;;;6.28;5.25;;;25.20;99.90;;;;;;5112852;28;20190;-76
2022/07/22 12:26:48;;;;;;;7.45;5.22;;;25.80;26.10;;;;;;5112349;28;20602;-77
2022/07/22 12:29:35;;;;;;;4.95;4.38;;;26.10;1.00;;;;;;5097985;28;20241;-77
2022/07/22 12:32:03;;;;;;;6.32;4.68;;;25.60;1.00;;;;;;5112712;28;20618;-77
2022/07/22 12:34:34;;;;;;;5.47;5.05;;;25.20;99.90;;;;;;5112789;28;20660;-77
2022/07/22 12:37:11;;;;;;;5.72;5.10;;;24.90;99.90;;;;;;5095395;28;20183;-79
2022/07/22 12:39:36;;;;;;;6.43;5.43;;;24.40;1.00;;;;;;5112001;28;20195;-77
2022/07/22 12:42:02;;;;;;;6.07;5.07;;;24.80;1.00;;;;;;5112614;28;20597;-76
2022/07/22 12:44:28;;;;;;;5.57;5.05;;;25.30;99.90;;;;;;5111555;28;20175;-76
2022/07/22 12:46:55;;;;;;;5.78;5.28;;;25.40;99.90;;;;;;5110330;28;20315;-75